createdAt,value
2023-01-25T00:00:00.832Z,72.78
2023-01-25T00:02:27.905Z,72.48
2023-01-25T00:04:54.785Z,72.83
2023-01-25T00:07:21.235Z,73.04
2023-01-25T00:09:47.690Z,72.71
2023-01-25T00:12:14.262Z,73.10
2023-01-25T00:14:40.774Z,72.78
2023-01-25T00:17:07.249Z,72.81
2023-01-25T00:19:33.878Z,73.09
2023-01-25T00:22:00.369Z,72.87
2023-01-25T00:24:27.226Z,72.67
2023-01-25T00:26:53.754Z,73.05
2023-01-25T00:29:20.153Z,73.16
2023-01-25T00:31:49.437Z,73.13
2023-01-25T00:34:42.205Z,73.78
2023-01-25T00:37:25.306Z,73.35
2023-01-25T00:39:52.175Z,73.10
2023-01-25T00:42:20.148Z,73.53
2023-01-25T00:44:47.618Z,73.62
2023-01-25T00:47:15.467Z,73.29
2023-01-25T00:49:43.096Z,73.16
2023-01-25T00:52:13.193Z,73.58
2023-01-25T00:54:40.280Z,73.30
2023-01-25T00:57:08.244Z,73.47
2023-01-25T00:59:34.692Z,73.53
2023-01-25T01:02:01.468Z,72.94
2023-01-25T01:04:28.044Z,73.24
2023-01-25T01:06:55.226Z,73.39
2023-01-25T01:09:23.494Z,73.40
2023-01-25T01:11:50.214Z,73.91
2023-01-25T01:14:16.713Z,73.56
2023-01-25T01:16:43.143Z,73.44
2023-01-25T01:19:10.764Z,73.36
2023-01-25T01:21:37.344Z,73.24
2023-01-25T01:24:04.370Z,73.29
2023-01-25T01:26:30.781Z,73.32
2023-01-25T01:28:58.920Z,73.70
2023-01-25T01:31:25.453Z,73.91
2023-01-25T01:33:53.910Z,74.12
2023-01-25T01:36:25.957Z,74.03
2023-01-25T01:38:52.909Z,74.17
2023-01-25T01:41:20.047Z,73.69
2023-01-25T01:43:46.894Z,74.41
2023-01-25T01:46:34.417Z,75.19
2023-01-25T01:49:12.352Z,74.34
2023-01-25T01:51:56.236Z,75.55
2023-01-25T01:54:35.275Z,75.17
2023-01-25T01:57:10.528Z,74.85
2023-01-25T01:59:44.577Z,75.27
2023-01-25T02:02:11.441Z,74.86
2023-01-25T02:04:38.031Z,74.72
2023-01-25T02:07:11.658Z,75.53
2023-01-25T02:09:38.090Z,75.20
2023-01-25T02:12:07.480Z,75.76
2023-01-25T02:14:34.661Z,75.41
2023-01-25T02:17:01.351Z,75.82
2023-01-25T02:19:50.158Z,76.53
2023-01-25T02:22:23.026Z,75.75
2023-01-25T02:25:10.081Z,76.34
2023-01-25T02:27:40.748Z,76.42
2023-01-25T02:30:08.811Z,76.07
2023-01-25T02:32:35.326Z,76.33
2023-01-25T02:35:02.019Z,75.83
2023-01-25T02:37:31.589Z,76.21
2023-01-25T02:39:58.021Z,76.03
2023-01-25T02:42:24.630Z,76.25
2023-01-25T02:44:52.310Z,75.75
2023-01-25T02:47:18.889Z,75.63
2023-01-25T02:49:45.301Z,75.72
2023-01-25T02:52:11.764Z,75.43
2023-01-25T02:54:38.222Z,75.97
2023-01-25T02:57:04.770Z,75.80
2023-01-25T02:59:31.132Z,75.78
2023-01-25T03:01:57.580Z,75.53
2023-01-25T03:04:24.701Z,75.67
2023-01-25T03:06:51.942Z,75.75
2023-01-25T03:09:18.425Z,76.06
2023-01-25T03:11:44.995Z,76.09
2023-01-25T03:14:11.462Z,76.22
2023-01-25T03:16:38.087Z,76.22
2023-01-25T03:19:04.581Z,76.50
2023-01-25T03:21:31.484Z,76.71
2023-01-25T03:24:01.458Z,76.89
2023-01-25T03:26:29.246Z,76.32
2023-01-25T03:28:55.739Z,76.78
2023-01-25T03:31:22.296Z,76.69
2023-01-25T03:33:49.714Z,76.54
2023-01-25T03:36:16.467Z,76.84
2023-01-25T03:38:43.145Z,76.69
2023-01-25T03:41:09.958Z,76.88
2023-01-25T03:43:36.379Z,76.93
2023-01-25T03:46:03.016Z,76.56
2023-01-25T03:48:29.708Z,76.88
2023-01-25T03:50:58.193Z,77.06
2023-01-25T03:53:29.991Z,77.06
2023-01-25T03:56:02.440Z,76.96
2023-01-25T03:58:30.316Z,76.75
2023-01-25T04:00:59.045Z,77.38
2023-01-25T04:03:26.184Z,76.31
2023-01-25T04:05:53.720Z,77.04
2023-01-25T04:08:20.624Z,76.09
2023-01-25T04:10:56.233Z,76.30
2023-01-25T04:13:24.970Z,75.97
2023-01-25T04:15:52.235Z,75.64
2023-01-25T04:18:19.421Z,76.33
2023-01-25T04:20:55.312Z,75.89
2023-01-25T04:23:22.728Z,75.72
2023-01-25T04:25:54.181Z,76.48
2023-01-25T04:28:20.943Z,75.91
2023-01-25T04:30:47.560Z,76.08
2023-01-25T04:33:14.612Z,75.93
2023-01-25T04:35:41.232Z,75.58
2023-01-25T04:38:07.831Z,76.13
2023-01-25T04:40:34.287Z,75.88
2023-01-25T04:43:00.721Z,75.62
2023-01-25T04:45:27.302Z,76.10
2023-01-25T04:48:05.792Z,76.80
2023-01-25T04:50:32.334Z,75.87
2023-01-25T04:52:58.844Z,75.33
2023-01-25T04:55:25.262Z,75.77
2023-01-25T04:57:51.836Z,74.87
2023-01-25T05:00:19.243Z,74.61
2023-01-25T05:02:45.771Z,75.11
2023-01-25T05:05:12.551Z,75.24
2023-01-25T05:07:39.390Z,74.81
2023-01-25T05:10:06.794Z,74.85
2023-01-25T05:12:33.483Z,74.94
2023-01-25T05:14:59.894Z,74.90
2023-01-25T05:17:26.436Z,75.14
2023-01-25T05:19:52.951Z,74.55
2023-01-25T05:22:20.962Z,75.08
2023-01-25T05:24:48.144Z,74.83
2023-01-25T05:27:17.655Z,74.77
2023-01-25T05:29:45.463Z,74.40
2023-01-25T05:32:17.937Z,75.01
2023-01-25T05:34:45.265Z,73.96
2023-01-25T05:37:14.351Z,74.10
2023-01-25T05:39:40.941Z,74.26
2023-01-25T05:42:18.342Z,75.19
2023-01-25T05:44:47.581Z,74.09
2023-01-25T05:47:16.351Z,74.33
2023-01-25T05:49:42.896Z,74.20
2023-01-25T05:52:14.896Z,74.87
2023-01-25T05:54:41.375Z,74.37
2023-01-25T05:57:07.945Z,74.77
2023-01-25T05:59:34.492Z,73.87
2023-01-25T06:02:01.161Z,74.49
2023-01-25T06:04:27.684Z,74.33
2023-01-25T06:06:54.110Z,74.42
2023-01-25T06:09:20.462Z,74.63
2023-01-25T06:11:46.914Z,74.57
2023-01-25T06:14:13.513Z,74.46
2023-01-25T06:16:40.145Z,74.56
2023-01-25T06:19:07.509Z,74.76
2023-01-25T06:21:37.752Z,74.56
2023-01-25T06:24:04.673Z,74.79
2023-01-25T06:26:31.349Z,74.34
2023-01-25T06:28:57.903Z,74.38
2023-01-25T06:31:24.466Z,74.70
2023-01-25T06:33:52.576Z,74.92
2023-01-25T06:36:20.207Z,74.88
2023-01-25T06:38:51.088Z,75.53
2023-01-25T06:41:18.354Z,74.92
2023-01-25T06:43:45.447Z,74.92
2023-01-25T06:46:12.611Z,75.29
2023-01-25T06:48:40.139Z,75.34
2023-01-25T06:51:08.623Z,75.27
2023-01-25T06:53:39.474Z,75.52
2023-01-25T06:56:10.905Z,75.26
2023-01-25T06:58:38.817Z,75.71
2023-01-25T07:01:12.456Z,75.57
2023-01-25T07:03:39.487Z,75.50
2023-01-25T07:06:07.929Z,75.18
2023-01-25T07:08:35.137Z,75.62
2023-01-25T07:11:04.323Z,75.05
2023-01-25T07:13:32.396Z,75.14
2023-01-25T07:16:01.556Z,74.74
2023-01-25T07:18:30.010Z,75.11
2023-01-25T07:21:13.686Z,75.20
2023-01-25T07:23:41.637Z,74.72
2023-01-25T07:26:17.683Z,74.83
2023-01-25T07:28:45.739Z,74.75
2023-01-25T07:31:12.518Z,74.58
2023-01-25T07:33:38.912Z,74.71
2023-01-25T07:36:07.937Z,74.71
2023-01-25T07:38:34.905Z,74.55
2023-01-25T07:41:01.552Z,74.82
2023-01-25T07:43:29.226Z,74.34
2023-01-25T07:46:01.866Z,74.56
2023-01-25T07:48:28.487Z,74.62
2023-01-25T07:51:20.529Z,74.69
2023-01-25T07:53:47.503Z,74.40
2023-01-25T07:56:14.076Z,74.48
2023-01-25T07:58:40.481Z,74.49
2023-01-25T08:01:18.302Z,75.46
2023-01-25T08:03:45.996Z,74.49
2023-01-25T08:06:12.823Z,74.67
2023-01-25T08:08:42.280Z,75.22
2023-01-25T08:11:18.192Z,74.57
2023-01-25T08:13:47.590Z,74.85
2023-01-25T08:16:14.811Z,74.98
2023-01-25T08:18:41.347Z,74.40
2023-01-25T08:21:08.538Z,74.50
2023-01-25T08:23:35.350Z,74.59
2023-01-25T08:26:04.739Z,74.14
2023-01-25T08:28:31.421Z,74.28
2023-01-25T08:31:16.583Z,75.54
2023-01-25T08:33:44.468Z,74.56
2023-01-25T08:36:11.073Z,74.35
2023-01-25T08:38:41.986Z,74.04
2023-01-25T08:41:15.782Z,74.99
2023-01-25T08:43:44.475Z,74.21
2023-01-25T08:46:11.267Z,74.48
2023-01-25T08:48:37.818Z,73.64
2023-01-25T08:51:04.460Z,73.86
2023-01-25T08:53:31.993Z,74.27
2023-01-25T08:56:12.159Z,74.68
2023-01-25T08:58:39.739Z,74.74
2023-01-25T09:01:08.760Z,74.56
2023-01-25T09:03:36.740Z,74.32
2023-01-25T09:06:03.309Z,74.83
2023-01-25T09:08:29.868Z,74.82
2023-01-25T09:11:01.433Z,75.05
2023-01-25T09:13:28.193Z,74.33
2023-01-25T09:16:06.708Z,75.33
2023-01-25T09:18:35.448Z,74.51
2023-01-25T09:21:10.324Z,74.31
2023-01-25T09:23:50.481Z,73.52
2023-01-25T09:26:18.952Z,73.47
2023-01-25T09:28:50.787Z,73.97
2023-01-25T09:31:22.033Z,73.02
2023-01-25T09:33:50.370Z,73.40
2023-01-25T09:36:17.073Z,73.13
2023-01-25T09:38:43.602Z,73.54
2023-01-25T09:41:21.888Z,74.24
2023-01-25T09:44:25.299Z,74.63
2023-01-25T09:46:56.078Z,73.71
2023-01-25T09:49:31.635Z,74.05
2023-01-25T09:51:58.226Z,73.48
2023-01-25T09:54:28.502Z,74.12
2023-01-25T09:56:57.348Z,73.76
2023-01-25T09:59:28.512Z,73.88
2023-01-25T10:02:05.746Z,74.46
2023-01-25T10:04:40.181Z,74.15
2023-01-25T10:07:18.644Z,74.56
2023-01-25T10:09:53.310Z,73.83
2023-01-25T10:12:23.767Z,73.46
2023-01-25T10:14:51.542Z,73.41
2023-01-25T10:17:40.406Z,74.06
2023-01-25T10:20:25.330Z,74.42
2023-01-25T10:23:08.381Z,73.45
2023-01-25T10:25:41.466Z,73.23
2023-01-25T10:28:24.640Z,73.05
2023-01-25T10:31:02.563Z,73.49
2023-01-25T10:33:34.854Z,72.52
2023-01-25T10:36:04.545Z,72.99
2023-01-25T10:38:45.370Z,72.66
2023-01-25T10:41:30.537Z,73.03
2023-01-25T10:44:15.801Z,72.76
2023-01-25T10:46:49.285Z,73.29
2023-01-25T10:49:22.030Z,73.20
2023-01-25T10:51:48.499Z,73.03
2023-01-25T10:54:16.580Z,73.17
2023-01-25T10:56:46.080Z,72.56
2023-01-25T10:59:23.609Z,73.73
2023-01-25T11:01:50.084Z,73.19
2023-01-25T11:04:35.185Z,73.32
2023-01-25T11:07:06.001Z,72.85
2023-01-25T11:09:34.045Z,72.69
2023-01-25T11:12:03.289Z,73.06
2023-01-25T11:14:32.167Z,73.17
2023-01-25T11:17:01.701Z,72.91
2023-01-25T11:19:32.776Z,73.03
2023-01-25T11:22:01.213Z,73.10
2023-01-25T11:24:33.449Z,73.78
2023-01-25T11:27:18.730Z,73.88
2023-01-25T11:29:47.126Z,73.20
2023-01-25T11:32:21.541Z,73.12
2023-01-25T11:34:50.159Z,73.18
2023-01-25T11:37:32.336Z,74.13
2023-01-25T11:40:13.120Z,73.86
2023-01-25T11:43:06.194Z,74.39
2023-01-25T11:45:55.373Z,73.99
2023-01-25T11:48:32.989Z,73.85
2023-01-25T11:51:07.110Z,73.93
2023-01-25T11:54:05.855Z,73.33
2023-01-25T11:56:57.207Z,73.62
2023-01-25T11:59:35.572Z,73.13
2023-01-25T12:02:02.711Z,73.40
2023-01-25T12:04:47.320Z,73.23
2023-01-25T12:07:37.163Z,73.48
2023-01-25T12:10:14.455Z,72.48
2023-01-25T12:13:11.338Z,73.47
2023-01-25T12:16:02.217Z,73.28
2023-01-25T12:18:37.733Z,73.87
2023-01-25T12:21:31.468Z,73.79
2023-01-25T12:24:25.811Z,73.39
2023-01-25T12:26:52.290Z,73.05
2023-01-25T12:29:18.740Z,72.98
2023-01-25T12:32:05.144Z,74.03
2023-01-25T12:34:41.376Z,73.38
2023-01-25T12:37:32.751Z,73.62
2023-01-25T12:40:04.841Z,73.00
2023-01-25T12:42:44.440Z,73.70
2023-01-25T12:45:25.225Z,73.37
2023-01-25T12:48:13.122Z,72.77
2023-01-25T12:50:49.614Z,74.19
2023-01-25T12:53:52.427Z,73.83
2023-01-25T12:57:09.752Z,73.79
2023-01-25T13:00:19.617Z,74.13
2023-01-25T13:03:06.839Z,74.82
2023-01-25T13:05:51.877Z,74.33
2023-01-25T13:08:34.524Z,74.45
2023-01-25T13:11:31.912Z,74.47
2023-01-25T13:14:16.707Z,74.09
2023-01-25T13:17:10.372Z,73.77
2023-01-25T13:19:37.499Z,73.62
2023-01-25T13:22:04.908Z,73.71
2023-01-25T13:24:55.317Z,73.89
2023-01-25T13:27:27.254Z,73.82
2023-01-25T13:29:59.369Z,73.66
2023-01-25T13:32:25.808Z,73.13
2023-01-25T13:34:52.205Z,73.33
2023-01-25T13:37:21.628Z,73.73
2023-01-25T13:40:07.767Z,74.23
2023-01-25T13:42:38.576Z,73.46
2023-01-25T13:45:15.725Z,74.08
2023-01-25T13:47:44.117Z,73.47
2023-01-25T13:50:25.863Z,74.88
2023-01-25T13:53:03.745Z,74.36
2023-01-25T13:55:39.681Z,74.10
2023-01-25T13:58:22.336Z,74.53
2023-01-25T14:01:08.585Z,74.23
2023-01-25T14:03:51.143Z,74.67
2023-01-25T14:06:22.207Z,74.49
2023-01-25T14:08:49.860Z,74.64
2023-01-25T14:11:22.451Z,75.18
2023-01-25T14:14:02.489Z,75.65
2023-01-25T14:16:31.052Z,74.71
2023-01-25T14:19:18.507Z,75.27
2023-01-25T14:21:44.909Z,75.09
2023-01-25T14:24:11.884Z,74.84
2023-01-25T14:26:41.946Z,75.41
2023-01-25T14:29:35.393Z,75.94
2023-01-25T14:32:03.042Z,75.49
2023-01-25T14:34:29.541Z,75.50
2023-01-25T14:37:18.566Z,76.41
2023-01-25T14:39:46.131Z,75.80
2023-01-25T14:42:12.998Z,75.34
2023-01-25T14:44:40.096Z,75.69
2023-01-25T14:47:30.068Z,76.38
2023-01-25T14:50:35.572Z,76.54
2023-01-25T14:53:23.611Z,76.62
2023-01-25T14:55:51.125Z,75.92
2023-01-25T14:58:20.970Z,75.75
2023-01-25T15:01:02.238Z,76.83
2023-01-25T15:03:30.797Z,76.50
2023-01-25T15:06:02.942Z,76.10
2023-01-25T15:08:37.162Z,76.46
2023-01-25T15:11:22.464Z,76.18
2023-01-25T15:13:49.016Z,76.29
2023-01-25T15:16:16.460Z,76.47
2023-01-25T15:18:43.174Z,76.44
2023-01-25T15:21:17.215Z,77.12
2023-01-25T15:23:45.974Z,76.81
2023-01-25T15:26:25.892Z,77.71
2023-01-25T15:28:55.675Z,77.11
2023-01-25T15:31:26.334Z,77.22
2023-01-25T15:33:53.334Z,76.57
2023-01-25T15:36:20.286Z,76.91
2023-01-25T15:38:46.824Z,76.63
2023-01-25T15:41:14.197Z,77.23
2023-01-25T15:43:41.304Z,76.67
2023-01-25T15:46:16.980Z,78.11
2023-01-25T15:48:45.342Z,76.99
2023-01-25T15:51:12.996Z,77.15
2023-01-25T15:53:40.155Z,77.47
2023-01-25T15:56:13.007Z,77.47
2023-01-25T15:58:41.735Z,77.78
2023-01-25T16:01:08.758Z,77.73
2023-01-25T16:03:35.716Z,77.94
2023-01-25T16:06:16.897Z,79.07
2023-01-25T16:08:43.500Z,77.35
2023-01-25T16:11:10.067Z,78.10
2023-01-25T16:13:36.855Z,78.02
2023-01-25T16:16:03.606Z,77.57
2023-01-25T16:18:30.176Z,77.79
2023-01-25T16:20:56.603Z,77.18
2023-01-25T16:23:22.996Z,77.77
2023-01-25T16:25:49.463Z,77.52
2023-01-25T16:28:16.257Z,77.37
2023-01-25T16:30:45.031Z,77.58
2023-01-25T16:33:11.858Z,77.72
2023-01-25T16:35:38.533Z,78.11
2023-01-25T16:38:05.123Z,78.23
2023-01-25T16:40:39.719Z,79.06
2023-01-25T16:43:06.482Z,78.61
2023-01-25T16:45:33.044Z,78.78
2023-01-25T16:48:00.015Z,78.89
2023-01-25T16:50:26.530Z,79.39
2023-01-25T16:52:54.733Z,79.05
2023-01-25T16:55:21.162Z,79.29
2023-01-25T16:57:51.321Z,79.47
2023-01-25T17:00:17.894Z,79.63
2023-01-25T17:02:58.199Z,79.15
2023-01-25T17:05:29.219Z,79.01
2023-01-25T17:07:55.955Z,79.40
2023-01-25T17:10:23.560Z,78.84
2023-01-25T17:12:50.564Z,79.04
2023-01-25T17:15:19.866Z,79.29
2023-01-25T17:17:46.558Z,78.84
2023-01-25T17:20:13.103Z,78.72
2023-01-25T17:22:40.508Z,78.69
2023-01-25T17:25:07.317Z,78.63
2023-01-25T17:27:33.749Z,78.62
2023-01-25T17:30:00.184Z,78.80
2023-01-25T17:32:26.628Z,79.05
2023-01-25T17:34:53.770Z,79.14
2023-01-25T17:37:20.335Z,78.91
2023-01-25T17:39:47.635Z,78.98
2023-01-25T17:42:14.587Z,79.43
2023-01-25T17:44:41.201Z,79.06
2023-01-25T17:47:07.596Z,79.18
2023-01-25T17:49:34.148Z,79.29
2023-01-25T17:52:02.232Z,79.82
2023-01-25T17:54:28.851Z,79.78
2023-01-25T17:56:55.535Z,79.30
2023-01-25T17:59:22.052Z,79.17
2023-01-25T18:01:48.607Z,79.21
2023-01-25T18:04:18.098Z,79.22
2023-01-25T18:06:44.766Z,79.32
2023-01-25T18:09:11.257Z,78.90
2023-01-25T18:11:40.795Z,79.26
2023-01-25T18:14:12.803Z,79.47
2023-01-25T18:16:40.729Z,78.95
2023-01-25T18:19:07.975Z,78.51
2023-01-25T18:21:35.006Z,78.71
2023-01-25T18:24:23.428Z,79.39
2023-01-25T18:26:50.858Z,78.17
2023-01-25T18:29:17.265Z,78.29
2023-01-25T18:31:44.230Z,78.16
2023-01-25T18:34:10.716Z,78.15
2023-01-25T18:36:37.266Z,78.21
2023-01-25T18:39:06.770Z,77.89
2023-01-25T18:41:33.267Z,78.39
2023-01-25T18:43:59.923Z,77.66
2023-01-25T18:46:26.321Z,78.40
2023-01-25T18:48:52.726Z,77.82
2023-01-25T18:51:19.254Z,77.93
2023-01-25T18:53:49.122Z,78.18
2023-01-25T18:56:21.208Z,78.92
2023-01-25T18:58:48.576Z,78.25
2023-01-25T19:01:21.111Z,78.57
2023-01-25T19:03:49.599Z,78.30
2023-01-25T19:06:16.942Z,77.91
2023-01-25T19:08:46.334Z,77.86
2023-01-25T19:11:15.972Z,78.16
2023-01-25T19:13:44.132Z,77.67
2023-01-25T19:16:24.529Z,78.73
2023-01-25T19:18:53.615Z,78.08
2023-01-25T19:21:22.820Z,78.25
2023-01-25T19:23:50.046Z,77.72
2023-01-25T19:26:19.101Z,77.52
2023-01-25T19:28:46.969Z,77.96
2023-01-25T19:31:24.770Z,78.04
2023-01-25T19:33:56.176Z,78.62
2023-01-25T19:36:23.175Z,78.05
2023-01-25T19:38:49.899Z,78.43
2023-01-25T19:41:21.440Z,79.30
2023-01-25T19:43:52.106Z,78.61
2023-01-25T19:46:20.763Z,79.03
2023-01-25T19:48:50.051Z,79.14
2023-01-25T19:51:22.532Z,79.49
2023-01-25T19:54:15.187Z,79.85
2023-01-25T19:56:43.125Z,79.00
2023-01-25T19:59:15.453Z,79.60
2023-01-25T20:01:43.889Z,79.74
2023-01-25T20:04:17.412Z,79.91
2023-01-25T20:06:43.826Z,79.07
2023-01-25T20:09:12.898Z,79.57
2023-01-25T20:11:40.733Z,79.80
2023-01-25T20:14:08.006Z,79.54
2023-01-25T20:16:35.343Z,79.92
2023-01-25T20:19:03.005Z,79.94
2023-01-25T20:21:31.065Z,79.35
2023-01-25T20:24:02.337Z,80.11
2023-01-25T20:26:34.797Z,79.85
2023-01-25T20:29:01.301Z,79.90
2023-01-25T20:31:33.752Z,80.64
2023-01-25T20:34:03.676Z,80.05
2023-01-25T20:36:31.569Z,79.90
2023-01-25T20:38:58.133Z,79.84
2023-01-25T20:41:25.019Z,79.57
2023-01-25T20:44:06.961Z,80.44
2023-01-25T20:46:34.663Z,79.74
2023-01-25T20:49:03.230Z,80.05
2023-01-25T20:51:29.954Z,79.88
2023-01-25T20:53:56.964Z,79.61
2023-01-25T20:56:23.860Z,79.75
2023-01-25T20:58:51.367Z,79.72
2023-01-25T21:01:28.237Z,80.09
2023-01-25T21:03:56.863Z,79.95
2023-01-25T21:06:24.958Z,79.93
2023-01-25T21:08:51.455Z,79.88
2023-01-25T21:11:18.038Z,80.14
2023-01-25T21:13:44.498Z,79.61
2023-01-25T21:16:15.118Z,80.15
2023-01-25T21:18:52.702Z,80.14
2023-01-25T21:21:21.876Z,79.78
2023-01-25T21:23:50.483Z,79.58
2023-01-25T21:26:20.264Z,80.21
2023-01-25T21:28:47.826Z,80.11
2023-01-25T21:31:20.174Z,80.38
2023-01-25T21:33:47.521Z,79.70
2023-01-25T21:36:15.830Z,80.46
2023-01-25T21:38:44.044Z,80.02
2023-01-25T21:41:13.096Z,80.60
2023-01-25T21:43:58.309Z,79.86
2023-01-25T21:46:26.963Z,80.19
2023-01-25T21:49:12.527Z,80.80
2023-01-25T21:51:46.976Z,80.38
2023-01-25T21:54:21.679Z,81.04
2023-01-25T21:56:50.141Z,81.12
2023-01-25T21:59:17.059Z,80.90
2023-01-25T22:01:44.245Z,81.46
2023-01-25T22:04:12.143Z,81.67
2023-01-25T22:06:38.907Z,81.62
2023-01-25T22:09:06.157Z,81.67
2023-01-25T22:11:32.958Z,81.19
2023-01-25T22:14:00.983Z,81.67
2023-01-25T22:16:29.297Z,81.74
2023-01-25T22:18:56.459Z,81.72
2023-01-25T22:21:25.635Z,81.49
2023-01-25T22:23:52.747Z,81.68
2023-01-25T22:26:21.307Z,81.99
2023-01-25T22:28:56.162Z,82.10
2023-01-25T22:31:24.872Z,82.00
2023-01-25T22:33:53.024Z,81.90
2023-01-25T22:36:21.765Z,81.86
2023-01-25T22:38:48.655Z,81.52
2023-01-25T22:41:24.666Z,82.20
2023-01-25T22:43:52.931Z,81.82
2023-01-25T22:46:21.479Z,82.10
2023-01-25T22:48:48.447Z,81.96
2023-01-25T22:51:26.692Z,82.20
2023-01-25T22:53:54.328Z,81.54
2023-01-25T22:56:24.132Z,81.39
2023-01-25T22:58:51.560Z,81.51
2023-01-25T23:01:23.863Z,81.19
2023-01-25T23:03:51.241Z,81.29
2023-01-25T23:06:26.570Z,82.32
2023-01-25T23:08:59.737Z,81.61
2023-01-25T23:11:32.181Z,81.98
2023-01-25T23:14:17.941Z,81.58
2023-01-25T23:16:44.606Z,81.63
2023-01-25T23:19:11.267Z,81.66
2023-01-25T23:21:37.854Z,81.60
2023-01-25T23:24:04.632Z,81.53
2023-01-25T23:26:37.554Z,81.68
2023-01-25T23:29:06.815Z,81.63
2023-01-25T23:31:33.365Z,81.72
2023-01-25T23:34:02.228Z,81.66
2023-01-25T23:36:38.774Z,81.97
2023-01-25T23:39:05.340Z,81.72
2023-01-25T23:41:32.220Z,81.78
2023-01-25T23:43:59.620Z,81.78
2023-01-25T23:46:27.452Z,82.22
2023-01-25T23:48:54.042Z,81.73
2023-01-25T23:51:20.472Z,82.01
2023-01-25T23:53:47.381Z,81.76
2023-01-25T23:56:16.906Z,82.22
2023-01-25T23:58:44.338Z,81.73
